Time;durP1;ratioP1;P1;durP2;ratioP2;P2;SDS_P1;SDS_P2;PMS_P1;PMS_P2;Temp;Humidity;BMP_temperature;BMP_pressure;BME280_temperature;BME280_humidity;BME280_pressure;Samples;Min_cycle;Max_cycle;Signal;HPM_P1;HPM_P2
2021/10/24 00:02:25;;;;;;;2.53;1.60;;;;;;;1.04;80.60;99149.81;6167351;28;20328;-72
2021/10/24 00:05:27;;;;;;;4.10;1.47;;;;;;;0.98;80.72;99147.34;6169116;28;20199;-72
2021/10/24 00:08:30;;;;;;;4.10;1.73;;;;;;;0.93;81.09;99154.34;6168288;28;20197;-72
2021/10/24 00:11:32;;;;;;;2.90;1.60;;;;;;;0.89;80.77;99150.13;6167387;28;20197;-72
2021/10/24 00:14:34;;;;;;;1.60;1.17;;;;;;;0.84;81.13;99150.19;6169159;28;20201;-72
2021/10/24 00:17:37;;;;;;;4.10;1.60;;;;;;;0.82;81.39;99148.47;6169637;28;20198;-72
2021/10/24 00:20:39;;;;;;;3.43;1.43;;;;;;;0.82;81.21;99164.06;6150896;28;20197;-72
2021/10/24 00:23:41;;;;;;;1.97;1.47;;;;;;;0.79;81.70;99161.56;6167127;28;20217;-72
2021/10/24 00:26:43;;;;;;;3.87;1.30;;;;;;;0.77;81.34;99166.78;6168754;28;20196;-72
2021/10/24 00:29:46;;;;;;;3.23;1.30;;;;;;;0.77;81.14;99166.78;6168315;28;20202;-72
2021/10/24 00:32:49;;;;;;;1.50;1.23;;;;;;;0.75;81.63;99165.94;6163575;28;20264;-72
2021/10/24 00:35:51;;;;;;;2.47;1.47;;;;;;;0.73;80.75;99160.75;6150336;28;20194;-72
2021/10/24 00:38:53;;;;;;;2.60;1.43;;;;;;;0.66;81.23;99156.56;6166685;28;20230;-72
2021/10/24 00:41:55;;;;;;;3.57;1.70;;;;;;;0.61;81.21;99154.91;6166273;28;20233;-72
2021/10/24 00:44:58;;;;;;;3.03;1.37;;;;;;;0.57;81.27;99155.84;6170890;28;20241;-72
2021/10/24 00:48:00;;;;;;;2.80;0.93;;;;;;;0.50;81.31;99157.69;6169467;28;20195;-72
2021/10/24 00:51:02;;;;;;;3.43;1.57;;;;;;;0.47;81.43;99155.16;6167212;28;20216;-72
2021/10/24 00:54:04;;;;;;;2.07;1.40;;;;;;;0.45;81.20;99159.50;6150647;28;20194;-72
2021/10/24 00:57:06;;;;;;;4.40;1.57;;;;;;;0.44;81.26;99159.53;6167268;28;20683;-72
2021/10/24 01:00:12;;;;;;;3.57;1.57;;;;;;;0.40;81.36;99166.50;6166070;28;20388;-72
2021/10/24 01:03:14;;;;;;;5.13;1.60;;;;;;;0.38;81.57;99162.22;6166354;28;20190;-72
2021/10/24 01:06:16;;;;;;;4.30;1.20;;;;;;;0.38;81.91;99159.63;6149504;28;20341;-72
2021/10/24 01:09:22;;;;;;;5.77;1.40;;;;;;;0.35;81.48;99151.00;6170428;28;20213;-73
2021/10/24 01:12:24;;;;;;;2.37;1.47;;;;;;;0.32;82.01;99147.59;6179405;28;20210;-72
2021/10/24 01:15:26;;;;;;;3.07;1.47;;;;;;;0.28;82.21;99161.53;6172757;28;20208;-72
2021/10/24 01:18:28;;;;;;;4.73;1.30;;;;;;;0.25;81.59;99161.56;6172124;28;20297;-72
2021/10/24 01:21:31;;;;;;;2.00;1.30;;;;;;;0.26;82.01;99147.69;6149599;28;20221;-72
2021/10/24 01:24:33;;;;;;;2.13;1.27;;;;;;;0.25;82.09;99157.22;6171996;28;20198;-72
2021/10/24 01:27:37;;;;;;;4.23;1.53;;;;;;;0.24;82.15;99155.50;6172714;28;20193;-72
2021/10/24 01:30:39;;;;;;;2.30;1.10;;;;;;;0.19;82.25;99152.13;6171069;28;20201;-72
2021/10/24 01:33:41;;;;;;;3.30;1.43;;;;;;;0.12;82.10;99158.28;6167040;28;20297;-72
2021/10/24 01:36:44;;;;;;;2.50;1.03;;;;;;;0.11;81.99;99153.09;6155660;28;20744;-72
2021/10/24 01:39:46;;;;;;;4.07;1.40;;;;;;;0.14;82.15;99158.25;6170766;28;20272;-72
2021/10/24 01:42:52;;;;;;;3.53;1.20;;;;;;;0.14;82.17;99166.06;6153753;28;20222;-72
2021/10/24 01:45:56;;;;;;;1.90;1.20;;;;;;;0.16;82.16;99167.75;6154004;28;20241;-73
2021/10/24 01:48:58;;;;;;;5.17;1.80;;;;;;;0.20;82.31;99168.56;6169685;28;20194;-72
2021/10/24 01:52:01;;;;;;;2.97;1.50;;;;;;;0.15;82.08;99172.97;6169555;28;20581;-72
2021/10/24 01:55:08;;;;;;;6.23;1.50;;;;;;;0.04;81.89;99164.47;6154354;28;20491;-72
2021/10/24 01:58:10;;;;;;;3.77;1.50;;;;;;;-0.04;82.13;99162.84;6169748;28;20194;-72
2021/10/24 02:01:12;;;;;;;5.70;1.43;;;;;;;-0.10;82.35;99162.09;6158298;28;20198;-72
2021/10/24 02:04:41;;;;;;;4.50;1.40;;;;;;;-0.18;82.12;99164.75;6168734;28;20202;-72
2021/10/24 02:07:57;;;;;;;2.50;1.20;;;;;;;-0.24;82.47;99167.44;6152119;28;20222;-72
2021/10/24 02:11:01;;;;;;;3.30;1.40;;;;;;;-0.28;82.60;99155.38;6169272;28;20210;-72
2021/10/24 02:14:06;;;;;;;5.30;1.40;;;;;;;-0.31;82.86;99147.66;6146929;28;20218;-72
2021/10/24 02:17:16;;;;;;;6.03;1.60;;;;;;;-0.33;82.76;99141.63;6169452;28;20218;-72
2021/10/24 02:20:22;;;;;;;3.70;1.30;;;;;;;-0.37;82.78;99145.13;6160118;28;20209;-72
2021/10/24 02:23:24;;;;;;;1.43;1.10;;;;;;;-0.37;82.82;99147.72;6146266;28;20554;-72
2021/10/24 02:26:30;;;;;;;4.00;1.93;;;;;;;-0.34;83.22;99137.31;6177361;28;20213;-72
2021/10/24 02:29:32;;;;;;;5.53;1.13;;;;;;;-0.33;83.07;99133.84;6169940;28;20749;-72
2021/10/24 02:32:34;;;;;;;2.37;1.20;;;;;;;-0.31;83.40;99136.44;6168885;28;20334;-73
2021/10/24 02:35:43;;;;;;;7.33;1.73;;;;;;;-0.31;83.03;99145.06;6169444;28;20199;-72
2021/10/24 02:38:46;;;;;;;2.30;1.13;;;;;;;-0.33;83.10;99144.22;6153067;28;20221;-72
2021/10/24 02:41:48;;;;;;;3.30;1.57;;;;;;;-0.38;83.31;99146.88;6161075;28;20237;-72
2021/10/24 02:44:52;;;;;;;4.63;1.40;;;;;;;-0.42;83.32;99128.78;6133827;28;20602;-72
2021/10/24 02:47:56;;;;;;;3.77;1.53;;;;;;;-0.44;83.12;99138.31;6129589;29;20988;-72
2021/10/24 02:51:00;;;;;;;2.07;1.20;;;;;;;-0.43;83.36;99135.72;6142204;28;20199;-72
2021/10/24 02:54:02;;;;;;;2.63;1.20;;;;;;;-0.40;83.33;99134.81;6117746;29;20616;-73
2021/10/24 02:57:05;;;;;;;1.70;1.43;;;;;;;-0.43;83.49;99140.03;6133778;28;20191;-72
2021/10/24 03:00:09;;;;;;;1.50;1.30;;;;;;;-0.46;82.95;99142.66;6136442;28;20322;-72
2021/10/24 03:03:11;;;;;;;3.40;1.20;;;;;;;-0.49;83.53;99140.97;6152802;28;20285;-72
2021/10/24 03:06:15;;;;;;;5.20;2.37;;;;;;;-0.46;83.21;99140.06;6159742;28;20704;-72
2021/10/24 03:09:17;;;;;;;2.90;1.30;;;;;;;-0.47;83.34;99140.94;6156565;28;20186;-73
2021/10/24 03:12:20;;;;;;;4.77;1.50;;;;;;;-0.53;83.50;99139.31;6145549;28;20295;-72
2021/10/24 03:15:22;;;;;;;3.03;1.37;;;;;;;-0.58;83.73;99135.91;6152484;28;20209;-72
2021/10/24 03:18:24;;;;;;;4.63;1.17;;;;;;;-0.61;83.41;99140.28;6153359;28;20681;-72
2021/10/24 03:21:27;;;;;;;4.17;1.10;;;;;;;-0.60;83.13;99142.81;6116728;29;20359;-72
2021/10/24 03:24:30;;;;;;;4.00;1.97;;;;;;;-0.56;83.71;99146.25;6129283;29;20195;-72
2021/10/24 03:27:35;;;;;;;3.40;1.30;;;;;;;-0.54;83.54;99141.91;6151109;28;20678;-72
2021/10/24 03:30:37;;;;;;;4.97;1.63;;;;;;;-0.57;83.35;99147.13;6145766;28;20198;-72
2021/10/24 03:33:39;;;;;;;4.03;1.53;;;;;;;-0.63;83.43;99148.06;6160270;28;20233;-72
2021/10/24 03:36:42;;;;;;;1.80;1.10;;;;;;;-0.62;83.56;99156.72;6143755;28;20760;-72
2021/10/24 03:39:45;;;;;;;2.97;1.27;;;;;;;-0.65;83.57;99152.41;6126741;28;20201;-72
2021/10/24 03:42:47;;;;;;;7.00;1.60;;;;;;;-0.65;83.68;99154.16;6138570;28;20698;-72
2021/10/24 03:45:50;;;;;;;3.83;1.53;;;;;;;-0.69;83.44;99153.31;6160423;28;20207;-73
2021/10/24 03:48:52;;;;;;;5.20;1.60;;;;;;;-0.70;83.24;99153.34;6164149;28;20783;-72
2021/10/24 03:51:55;;;;;;;3.27;1.50;;;;;;;-0.75;83.46;99154.25;6145685;28;20802;-72
2021/10/24 03:54:57;;;;;;;3.87;1.23;;;;;;;-0.77;83.65;99153.41;6147075;28;20214;-72
2021/10/24 03:57:59;;;;;;;3.70;1.57;;;;;;;-0.79;83.63;99149.97;6129349;29;20210;-72
2021/10/24 04:01:02;;;;;;;5.70;1.80;;;;;;;-0.78;83.59;99145.66;6159692;28;20194;-72
2021/10/24 04:04:07;;;;;;;2.17;1.40;;;;;;;-0.79;83.61;99141.34;6159292;28;20213;-72
2021/10/24 04:07:12;;;;;;;4.87;1.70;;;;;;;-0.81;83.62;99138.78;6128054;29;20362;-72
2021/10/24 04:10:17;;;;;;;3.13;1.50;;;;;;;-0.82;83.83;99136.22;6152194;28;20202;-73
2021/10/24 04:13:19;;;;;;;4.67;1.70;;;;;;;-0.89;83.76;99127.63;6155521;28;20377;-72
2021/10/24 04:16:21;;;;;;;3.87;1.90;;;;;;;-0.89;83.83;99135.41;6150990;28;20681;-72
2021/10/24 04:19:38;;;;;;;4.70;1.83;;;;;;;-0.87;83.81;99138.84;6131713;28;20225;-73
2021/10/24 04:22:40;;;;;;;3.37;1.70;;;;;;;-0.85;84.07;99129.31;6150272;28;20192;-73
2021/10/24 04:25:42;;;;;;;3.33;1.87;;;;;;;-0.85;83.87;99124.13;6145923;28;20349;-72
2021/10/24 04:28:45;;;;;;;7.53;1.80;;;;;;;-0.86;83.83;99127.59;6152292;28;20201;-72
2021/10/24 04:31:47;;;;;;;3.67;1.90;;;;;;;-0.86;84.18;99127.59;6154306;28;20194;-72
2021/10/24 04:34:50;;;;;;;3.80;1.50;;;;;;;-0.88;83.88;99131.06;6151008;28;20241;-72
2021/10/24 04:37:52;;;;;;;5.93;1.70;;;;;;;-0.87;84.07;99128.47;6147790;28;20228;-72
2021/10/24 04:40:54;;;;;;;4.63;1.70;;;;;;;-0.87;84.28;99130.19;6150146;28;20565;-72
2021/10/24 04:43:56;;;;;;;6.77;1.77;;;;;;;-0.90;84.20;99141.44;6145922;28;20836;-72
2021/10/24 04:46:59;;;;;;;2.97;1.40;;;;;;;-0.90;84.09;99138.03;6152404;28;20729;-73
2021/10/24 04:50:01;;;;;;;2.17;1.53;;;;;;;-0.90;84.10;99135.44;6153543;28;20213;-72
2021/10/24 04:53:07;;;;;;;7.10;1.83;;;;;;;-0.90;84.38;99132.84;6144098;28;20218;-72
2021/10/24 04:56:11;;;;;;;4.33;1.47;;;;;;;-0.89;84.02;99135.41;6158453;28;20187;-73
2021/10/24 04:59:14;;;;;;;4.70;1.77;;;;;;;-0.89;84.07;99140.56;6148614;28;20194;-73
2021/10/24 05:02:17;;;;;;;4.83;1.80;;;;;;;-0.91;83.93;99137.19;6144783;28;20203;-73
2021/10/24 05:05:19;;;;;;;6.53;2.20;;;;;;;-0.95;84.00;99134.63;6140852;29;20203;-72
2021/10/24 05:08:21;;;;;;;6.40;1.90;;;;;;;-0.97;84.11;99139.81;6148227;28;20190;-72
2021/10/24 05:11:23;;;;;;;5.40;1.77;;;;;;;-1.00;83.87;99137.28;6150820;28;20202;-72
2021/10/24 05:14:26;;;;;;;2.50;1.63;;;;;;;-1.02;83.99;99145.94;6133283;28;20433;-73
2021/10/24 05:17:28;;;;;;;2.83;1.73;;;;;;;-1.03;83.93;99144.22;6142054;28;20222;-73
2021/10/24 05:20:31;;;;;;;3.90;2.00;;;;;;;-1.07;83.93;99156.31;6150123;28;20601;-73
2021/10/24 05:23:33;;;;;;;4.73;2.27;;;;;;;-1.10;84.32;99153.78;6148292;28;20195;-72
2021/10/24 05:26:36;;;;;;;5.73;1.83;;;;;;;-1.13;84.20;99153.81;6151536;28;20203;-72
2021/10/24 05:29:38;;;;;;;2.80;1.70;;;;;;;-1.12;84.59;99160.72;6157932;28;20194;-72
2021/10/24 05:32:40;;;;;;;3.13;1.90;;;;;;;-1.10;84.56;99168.47;6148564;28;20205;-73
2021/10/24 05:35:42;;;;;;;7.30;2.10;;;;;;;-1.10;84.42;99166.75;6136069;28;20198;-73
2021/10/24 05:38:45;;;;;;;3.77;1.90;;;;;;;-1.07;84.40;99161.50;6143156;28;20225;-73
2021/10/24 05:41:53;;;;;;;3.87;2.13;;;;;;;-1.03;84.39;99164.94;6127598;28;20314;-72
2021/10/24 05:44:55;;;;;;;2.30;1.90;;;;;;;-1.03;84.36;99167.53;6176609;28;20568;-73
2021/10/24 05:47:57;;;;;;;7.73;2.30;;;;;;;-1.02;84.22;99177.88;6158809;28;20675;-73
2021/10/24 05:51:15;;;;;;;3.53;1.93;;;;;;;-1.01;84.46;99179.59;6157204;28;20207;-73
2021/10/24 05:54:18;;;;;;;10.57;2.77;;;;;;;-1.00;84.45;99176.13;6139793;28;20218;-73
2021/10/24 05:57:20;;;;;;;6.07;1.90;;;;;;;-0.97;84.22;99177.81;6134972;28;20202;-73
2021/10/24 06:00:40;;;;;;;5.87;1.97;;;;;;;-0.95;84.40;99186.44;6148641;28;20688;-72
2021/10/24 06:04:01;;;;;;;3.77;1.80;;;;;;;-0.94;84.21;99183.84;6140806;28;20230;-73
2021/10/24 06:07:36;;;;;;;4.10;2.13;;;;;;;-0.89;84.34;99188.94;6145492;28;20221;-73
2021/10/24 06:10:39;;;;;;;6.57;2.23;;;;;;;-0.85;84.49;99198.44;6144448;28;20249;-73
2021/10/24 06:13:42;;;;;;;4.20;1.80;;;;;;;-0.82;84.37;99191.50;6149592;28;20209;-73
2021/10/24 06:16:47;;;;;;;4.20;2.10;;;;;;;-0.79;84.52;99198.34;6161095;28;20194;-73
2021/10/24 06:19:49;;;;;;;9.43;2.43;;;;;;;-0.76;84.42;99198.31;6157027;28;20245;-72
2021/10/24 06:22:51;;;;;;;4.50;2.53;;;;;;;-0.73;84.51;99193.13;6124641;28;20311;-72
2021/10/24 06:25:54;;;;;;;7.50;3.80;;;;;;;-0.71;84.49;99196.56;6145497;28;20206;-72
2021/10/24 06:28:56;;;;;;;5.67;3.40;;;;;;;-0.68;84.19;99198.22;6146018;28;20194;-72
2021/10/24 06:31:59;;;;;;;4.33;3.13;;;;;;;-0.63;84.32;99202.50;6157779;28;20194;-71
2021/10/24 06:35:39;;;;;;;7.67;3.93;;;;;;;-0.56;84.66;99211.06;6080983;29;20260;-72
2021/10/24 06:39:07;;;;;;;6.20;3.33;;;;;;;-0.50;84.85;99206.66;6077188;28;20384;-72
2021/10/24 06:42:12;;;;;;;7.27;2.80;;;;;;;-0.44;84.75;99201.41;6155553;28;20262;-72
2021/10/24 06:45:33;;;;;;;5.10;2.53;;;;;;;-0.38;84.07;99214.31;6150467;28;20655;-72
2021/10/24 06:48:55;;;;;;;6.87;2.30;;;;;;;-0.30;84.55;99216.78;6120394;28;20222;-73
2021/10/24 06:52:10;;;;;;;5.33;2.80;;;;;;;-0.22;84.52;99219.31;6112398;28;20489;-72
2021/10/24 06:55:22;;;;;;;5.20;2.30;;;;;;;-0.15;84.36;99218.34;6131001;28;20231;-73
2021/10/24 06:58:50;;;;;;;4.97;2.07;;;;;;;-0.08;84.45;99212.19;6116326;28;20222;-70
2021/10/24 07:02:31;;;;;;;5.27;2.20;;;;;;;-0.02;84.11;99214.72;6122787;28;20206;-73
2021/10/24 07:05:51;;;;;;;6.90;2.37;;;;;;;0.08;84.08;99218.06;6108505;28;20239;-71
2021/10/24 07:09:00;;;;;;;4.37;2.40;;;;;;;0.16;84.21;99221.41;6128495;28;20198;-70
2021/10/24 07:12:04;;;;;;;3.33;1.80;;;;;;;0.22;84.57;99222.16;6142226;28;20186;-70
2021/10/24 07:15:08;;;;;;;5.23;2.20;;;;;;;0.28;84.34;99227.28;6138969;28;20219;-71
2021/10/24 07:18:11;;;;;;;4.70;1.90;;;;;;;0.35;84.39;99228.91;6138546;28;20532;-72
2021/10/24 07:21:14;;;;;;;5.37;2.57;;;;;;;0.45;84.67;99223.56;6143531;28;20263;-71
2021/10/24 07:24:16;;;;;;;6.03;2.40;;;;;;;0.54;84.19;99229.47;6149842;28;20331;-70
2021/10/24 07:27:18;;;;;;;5.27;2.40;;;;;;;0.63;84.59;99218.94;6145764;28;20544;-72
2021/10/24 07:30:21;;;;;;;7.40;3.10;;;;;;;0.75;84.37;99230.88;6117236;28;20752;-72
2021/10/24 07:33:29;;;;;;;3.00;2.23;;;;;;;0.86;84.57;99226.38;6131137;28;20222;-71
2021/10/24 07:36:43;;;;;;;6.10;2.73;;;;;;;0.99;84.48;99230.50;6126869;28;20592;-69
2021/10/24 07:39:45;;;;;;;16.73;3.93;;;;;;;1.11;84.49;99225.06;6140861;28;20202;-72
2021/10/24 07:42:48;;;;;;;5.90;2.67;;;;;;;1.27;84.90;99217.00;6173768;28;20230;-69
2021/10/24 07:45:51;;;;;;;6.03;2.63;;;;;;;1.39;84.34;99227.19;6161977;28;20202;-70
2021/10/24 07:48:57;;;;;;;5.17;2.63;;;;;;;1.53;84.42;99217.34;6145250;28;20214;-69
2021/10/24 07:51:59;;;;;;;4.27;2.67;;;;;;;1.68;84.34;99217.06;6161830;28;20222;-71
2021/10/24 07:55:03;;;;;;;4.90;2.47;;;;;;;1.87;84.72;99222.75;6156977;28;20863;-70
2021/10/24 07:58:07;;;;;;;7.13;2.53;;;;;;;2.09;84.72;99226.63;6147959;28;20194;-74
2021/10/24 08:01:10;;;;;;;2.93;1.90;;;;;;;2.32;84.08;99226.09;6162144;28;20541;-68
2021/10/24 08:04:12;;;;;;;4.40;2.10;;;;;;;2.58;83.61;99218.56;6148315;28;20209;-74
2021/10/24 08:07:17;;;;;;;11.97;3.17;;;;;;;2.93;83.13;99209.88;6163606;28;20206;-70
2021/10/24 08:10:19;;;;;;;6.20;3.43;;;;;;;3.32;81.56;99207.97;6163647;28;20280;-68
2021/10/24 08:13:21;;;;;;;6.07;2.50;;;;;;;3.71;80.31;99199.94;6168402;28;20673;-71
2021/10/24 08:16:26;;;;;;;5.87;2.60;;;;;;;4.06;78.56;99201.53;6147232;28;20260;-71
2021/10/24 08:19:28;;;;;;;5.47;2.70;;;;;;;4.40;77.68;99198.75;6152842;28;20684;-71
2021/10/24 08:22:34;;;;;;;4.60;2.30;;;;;;;4.70;76.28;99189.06;6166412;28;20543;-71
2021/10/24 08:25:36;;;;;;;5.07;2.23;;;;;;;5.03;75.04;99187.09;6171686;28;20305;-72
2021/10/24 08:28:39;;;;;;;3.63;2.13;;;;;;;5.35;73.56;99191.25;6156677;28;20202;-70
2021/10/24 08:32:14;;;;;;;4.07;2.30;;;;;;;5.73;71.51;99187.25;6128808;28;20304;-71
2021/10/24 08:35:16;;;;;;;6.03;3.53;;;;;;;6.02;70.55;99187.03;6153653;28;20238;-74
2021/10/24 08:38:18;;;;;;;4.20;1.90;;;;;;;6.25;69.91;99180.94;6170962;28;20306;-74
2021/10/24 08:41:26;;;;;;;7.33;2.17;;;;;;;6.57;67.90;99177.03;6166324;28;20241;-73
2021/10/24 08:44:30;;;;;;;4.93;2.37;;;;;;;6.85;67.81;99184.63;6150243;28;20193;-76
2021/10/24 08:47:32;;;;;;;4.10;2.10;;;;;;;7.10;67.50;99172.19;6161746;28;20237;-74
2021/10/24 08:50:34;;;;;;;5.40;2.40;;;;;;;7.36;66.52;99177.19;6164547;28;20212;-75
2021/10/24 08:53:39;;;;;;;8.73;3.27;;;;;;;7.55;63.70;99173.75;6165043;28;20213;-74
2021/10/24 08:56:41;;;;;;;4.57;1.90;;;;;;;7.77;63.29;99169.25;6166147;28;20206;-73
2021/10/24 08:59:46;;;;;;;5.10;2.00;;;;;;;8.07;63.62;99170.50;6167829;28;20291;-73
2021/10/24 09:02:58;;;;;;;6.47;2.27;;;;;;;8.24;61.22;99161.81;6167768;28;20673;-73
2021/10/24 09:06:00;;;;;;;6.30;2.43;;;;;;;8.49;60.50;99166.75;6160887;28;20855;-73
2021/10/24 09:09:16;;;;;;;5.47;2.30;;;;;;;8.83;59.98;99171.25;6164275;28;20209;-74
2021/10/24 09:12:19;;;;;;;3.30;2.17;;;;;;;9.15;59.53;99161.75;6146118;28;20233;-72
2021/10/24 09:15:21;;;;;;;5.53;1.90;;;;;;;9.18;59.79;99162.41;6171367;28;20454;-75
2021/10/24 09:18:49;;;;;;;4.47;2.00;;;;;;;9.31;59.35;99160.03;6162227;28;20695;-73
2021/10/24 09:22:17;;;;;;;3.23;1.90;;;;;;;9.80;58.13;99158.28;6159350;28;20201;-76
2021/10/24 09:25:19;;;;;;;5.77;1.73;;;;;;;10.05;57.15;99159.63;6161245;28;20211;-74
2021/10/24 09:28:25;;;;;;;6.87;2.27;;;;;;;10.14;54.12;99153.84;6162021;28;20619;-75
2021/10/24 09:31:29;;;;;;;5.53;2.00;;;;;;;10.33;55.76;99155.41;6165364;28;20204;-74
2021/10/24 09:34:32;;;;;;;3.47;1.87;;;;;;;10.58;55.31;99154.03;6167620;28;20614;-74
2021/10/24 09:38:19;;;;;;;5.07;2.60;;;;;;;10.55;52.83;99154.22;6152091;28;20238;-75
2021/10/24 09:41:40;;;;;;;5.00;2.00;;;;;;;10.74;51.94;99146.94;6165794;28;20233;-75
2021/10/24 09:45:09;;;;;;;5.00;1.70;;;;;;;10.70;50.56;99151.53;6167140;28;20574;-74
2021/10/24 09:48:15;;;;;;;4.33;2.20;;;;;;;10.99;52.23;99149.00;6140896;28;20249;-75
2021/10/24 09:51:18;;;;;;;5.90;2.10;;;;;;;11.31;52.05;99144.44;6166832;28;20198;-75
2021/10/24 09:54:25;;;;;;;4.07;1.83;;;;;;;11.58;51.60;99142.78;6166506;28;20214;-74
2021/10/24 09:57:28;;;;;;;3.40;1.63;;;;;;;11.71;50.64;99142.88;6138985;28;20202;-75
2021/10/24 10:00:31;;;;;;;5.27;2.40;;;;;;;11.79;47.98;99141.50;6167756;28;20194;-75
2021/10/24 10:03:34;;;;;;;3.13;1.70;;;;;;;11.79;48.98;99143.28;6145314;28;20597;-74
2021/10/24 10:06:37;;;;;;;3.23;2.00;;;;;;;11.44;48.24;99141.00;6151513;28;20199;-73
2021/10/24 10:09:43;;;;;;;3.37;1.70;;;;;;;11.46;49.10;99128.53;6151888;28;20234;-73
2021/10/24 10:12:50;;;;;;;5.23;2.20;;;;;;;11.59;49.11;99127.75;6162754;28;20197;-73
2021/10/24 10:16:02;;;;;;;4.63;2.23;;;;;;;11.86;49.42;99122.63;6165137;28;20210;-74
2021/10/24 10:19:07;;;;;;;5.03;1.90;;;;;;;11.94;47.98;99122.97;6159452;28;20217;-73
2021/10/24 10:22:21;;;;;;;4.67;1.93;;;;;;;11.89;47.87;99119.75;6161258;28;20207;-73
2021/10/24 10:25:27;;;;;;;3.33;2.37;;;;;;;12.16;49.76;99123.34;6166575;28;20224;-73
2021/10/24 10:28:56;;;;;;;5.90;2.00;;;;;;;11.93;48.75;99119.47;6167429;28;20199;-73
2021/10/24 10:32:15;;;;;;;6.17;2.10;;;;;;;12.06;47.98;99124.88;6142133;28;20289;-73
2021/10/24 10:35:19;;;;;;;6.47;1.97;;;;;;;12.07;48.54;99115.97;6160979;28;20214;-72
2021/10/24 10:38:40;;;;;;;6.80;2.10;;;;;;;12.25;48.51;99120.09;6160765;28;20223;-73
2021/10/24 10:41:43;;;;;;;5.37;2.20;;;;;;;12.30;47.29;99109.19;6167013;28;20246;-73
2021/10/24 10:45:16;;;;;;;3.47;1.97;;;;;;;12.37;46.70;99107.88;6167728;28;20187;-73
2021/10/24 10:48:38;;;;;;;4.57;1.80;;;;;;;11.89;46.36;99098.59;6163899;28;20212;-73
2021/10/24 10:51:40;;;;;;;2.40;1.50;;;;;;;12.19;46.58;99086.06;6167718;28;20214;-71
2021/10/24 10:54:56;;;;;;;5.17;1.97;;;;;;;12.48;45.29;99092.97;6161985;28;20596;-71
2021/10/24 10:58:32;;;;;;;3.40;2.00;;;;;;;12.52;44.64;99083.88;6160065;28;20205;-72
2021/10/24 11:01:39;;;;;;;5.13;1.70;;;;;;;12.50;44.09;99077.81;6165513;28;20637;-74
2021/10/24 11:04:51;;;;;;;4.47;1.63;;;;;;;12.58;43.28;99082.59;6167095;28;20230;-72
2021/10/24 11:07:53;;;;;;;4.10;1.87;;;;;;;12.93;43.81;99073.19;6162642;28;20203;-72
2021/10/24 11:10:55;;;;;;;3.10;1.77;;;;;;;13.25;42.71;99070.16;6117844;28;20212;-72
2021/10/24 11:13:57;;;;;;;3.53;1.63;;;;;;;13.23;42.66;99069.41;6159200;28;20583;-71
2021/10/24 11:17:00;;;;;;;3.07;1.57;;;;;;;13.30;42.90;99068.88;6130936;28;20218;-70
2021/10/24 11:20:26;;;;;;;4.47;1.80;;;;;;;13.46;44.33;99073.13;6157382;28;20570;-69
2021/10/24 11:23:31;;;;;;;3.57;1.87;;;;;;;13.72;42.80;99064.19;6164638;28;20737;-71
2021/10/24 11:26:36;;;;;;;6.17;1.70;;;;;;;13.55;42.08;99064.53;6163706;28;20509;-71
2021/10/24 11:29:52;;;;;;;3.87;1.43;;;;;;;13.54;42.44;99066.34;6128522;28;20717;-71
2021/10/24 11:33:00;;;;;;;7.07;2.17;;;;;;;13.83;43.16;99068.72;6164309;28;20536;-72
2021/10/24 11:36:04;;;;;;;3.00;1.50;;;;;;;14.20;42.91;99050.97;6159238;28;20219;-71
2021/10/24 11:39:06;;;;;;;4.30;1.57;;;;;;;14.52;41.63;99046.84;6150213;28;20213;-71
2021/10/24 11:42:12;;;;;;;3.33;1.97;;;;;;;14.50;41.93;99047.91;6156135;28;20237;-71
2021/10/24 11:45:24;;;;;;;3.77;1.50;;;;;;;14.69;40.88;99040.25;6160944;28;20209;-71
2021/10/24 11:48:28;;;;;;;4.60;1.90;;;;;;;14.40;41.62;99031.78;6159752;28;20273;-71
2021/10/24 11:51:33;;;;;;;4.73;2.10;;;;;;;14.13;42.24;99021.38;6151134;28;20637;-71
2021/10/24 11:54:36;;;;;;;6.87;2.00;;;;;;;13.82;42.09;99027.22;6163995;28;20209;-71
2021/10/24 12:04:03;;;;;;;5.97;1.70;;;;;;;14.73;41.44;99012.50;6168564;28;20578;-71
2021/10/24 12:07:08;;;;;;;4.07;1.90;;;;;;;14.81;41.32;99004.78;6167086;28;20560;-71
2021/10/24 12:10:10;;;;;;;4.07;1.93;;;;;;;15.05;41.39;99007.38;6168198;28;20201;-71
2021/10/24 12:13:36;;;;;;;4.53;2.27;;;;;;;14.89;41.15;99006.84;6169840;28;20205;-71
2021/10/24 12:16:41;;;;;;;4.70;2.10;;;;;;;15.18;40.62;99005.44;6170194;28;20349;-71
2021/10/24 12:19:44;;;;;;;3.60;1.90;;;;;;;15.18;39.52;98996.59;6169951;28;20206;-71
2021/10/24 12:22:49;;;;;;;5.20;2.10;;;;;;;14.71;40.69;98990.50;6170523;28;20240;-71
2021/10/24 12:25:54;;;;;;;5.03;2.43;;;;;;;14.74;40.45;98988.47;6170005;28;20546;-71
2021/10/24 12:28:57;;;;;;;7.70;2.20;;;;;;;14.94;41.22;99008.19;6169555;28;20202;-71
2021/10/24 12:32:12;;;;;;;4.33;2.07;;;;;;;14.39;40.19;98976.97;6169789;28;20205;-71
2021/10/24 12:35:14;;;;;;;4.07;1.97;;;;;;;14.91;39.46;98979.19;6169393;28;20584;-71
2021/10/24 12:38:18;;;;;;;3.67;1.93;;;;;;;15.03;39.47;98978.22;6169522;28;20210;-71
2021/10/24 12:41:39;;;;;;;2.73;1.80;;;;;;;15.40;38.23;98973.53;6169641;28;20635;-72
2021/10/24 12:44:42;;;;;;;7.53;2.07;;;;;;;15.71;38.52;98969.28;6169582;28;20182;-71
2021/10/24 12:47:58;;;;;;;4.57;1.83;;;;;;;16.03;38.23;98968.50;6165303;28;20203;-71
2021/10/24 12:51:00;;;;;;;6.03;2.10;;;;;;;16.15;36.39;98968.34;6152072;28;20548;-72
2021/10/24 12:54:04;;;;;;;5.77;1.93;;;;;;;16.19;36.94;98964.44;6153092;28;20201;-74
2021/10/24 12:57:08;;;;;;;2.30;1.50;;;;;;;15.96;37.83;98957.50;6169311;28;20210;-71
2021/10/24 13:00:10;;;;;;;4.60;1.97;;;;;;;16.21;36.88;98958.97;6167711;28;20202;-71
2021/10/24 13:03:13;;;;;;;4.27;1.83;;;;;;;16.51;35.36;98952.91;6169816;28;20250;-71
2021/10/24 13:06:15;;;;;;;4.27;1.63;;;;;;;16.62;35.25;98955.53;6153538;28;20201;-71
2021/10/24 13:09:19;;;;;;;4.03;1.77;;;;;;;16.82;34.52;98946.69;6174341;28;20190;-71
2021/10/24 13:12:21;;;;;;;5.50;1.70;;;;;;;16.90;34.28;98946.03;6172271;28;20201;-72
2021/10/24 13:15:28;;;;;;;2.97;1.30;;;;;;;18.58;32.31;98932.69;6173810;28;20265;-71
2021/10/24 13:18:30;;;;;;;4.30;1.43;;;;;;;19.22;31.18;98931.97;6156173;28;20292;-71
2021/10/24 13:24:38;;;;;;;4.27;2.03;;;;;;;17.93;32.04;98931.53;6173683;28;20203;-71
2021/10/24 13:27:40;;;;;;;2.67;1.47;;;;;;;17.75;32.96;98924.34;6173107;28;20193;-71
2021/10/24 13:30:43;;;;;;;1.90;1.40;;;;;;;16.35;34.75;98931.19;6170402;28;20286;-71
2021/10/24 13:33:45;;;;;;;2.87;1.40;;;;;;;15.08;36.98;98936.16;6172347;28;20225;-71
2021/10/24 13:36:47;;;;;;;3.40;1.40;;;;;;;14.37;38.97;98929.25;6172366;28;20304;-71
2021/10/24 13:39:49;;;;;;;2.70;1.60;;;;;;;13.70;39.94;98920.16;6171898;28;20202;-71
2021/10/24 13:42:52;;;;;;;2.83;1.33;;;;;;;13.16;41.79;98931.16;6172262;28;20240;-71
2021/10/24 13:45:54;;;;;;;3.90;1.63;;;;;;;12.72;42.89;98920.13;6167733;28;20205;-71
2021/10/24 13:48:57;;;;;;;3.93;1.47;;;;;;;12.47;43.33;98920.97;6157366;28;20268;-72
2021/10/24 13:51:59;;;;;;;4.57;2.00;;;;;;;12.19;44.17;98919.31;6161661;28;20211;-72
2021/10/24 13:55:01;;;;;;;3.17;1.30;;;;;;;11.85;44.35;98923.38;6172855;28;20220;-71
2021/10/24 13:58:03;;;;;;;8.00;1.90;;;;;;;11.66;44.83;98917.56;6172448;28;20190;-71
2021/10/24 14:01:06;;;;;;;3.40;1.63;;;;;;;11.56;45.53;98916.44;6173017;28;20219;-71
2021/10/24 14:04:09;;;;;;;3.53;1.50;;;;;;;11.56;46.27;98932.31;6172271;28;20222;-71
2021/10/24 14:07:12;;;;;;;3.37;1.50;;;;;;;11.42;46.23;98923.47;6172443;28;20507;-72
2021/10/24 14:10:15;;;;;;;3.03;1.67;;;;;;;11.32;46.63;98924.16;6172415;28;20514;-71
2021/10/24 14:13:18;;;;;;;5.67;1.70;;;;;;;11.27;46.87;98916.53;6171024;28;20207;-71
2021/10/24 14:16:21;;;;;;;4.73;1.80;;;;;;;11.14;47.43;98920.88;6171143;28;20276;-71
2021/10/24 14:19:23;;;;;;;4.17;1.73;;;;;;;11.12;47.77;98913.97;6172218;28;20198;-72
2021/10/24 14:22:25;;;;;;;4.20;1.60;;;;;;;10.97;47.74;98911.38;6172103;28;20201;-71
2021/10/24 14:25:27;;;;;;;4.67;1.70;;;;;;;10.89;47.38;98905.69;6171079;28;20196;-72
2021/10/24 14:28:30;;;;;;;4.37;1.30;;;;;;;10.82;47.72;98900.91;6171711;28;20194;-71
2021/10/24 14:31:32;;;;;;;3.87;1.70;;;;;;;10.67;48.07;98900.06;6160117;28;20207;-71
2021/10/24 14:34:35;;;;;;;3.87;1.57;;;;;;;10.69;48.39;98901.63;6168994;28;20209;-72
2021/10/24 14:37:49;;;;;;;3.00;1.60;;;;;;;10.48;48.64;98886.28;6172422;28;20214;-71
2021/10/24 14:40:51;;;;;;;5.33;1.80;;;;;;;10.46;49.83;98890.81;6163931;28;20234;-72
2021/10/24 14:43:53;;;;;;;4.70;1.53;;;;;;;10.38;48.96;98890.41;6171312;28;20205;-72
2021/10/24 14:46:57;;;;;;;2.13;1.20;;;;;;;10.30;49.80;98891.69;6169012;28;20671;-72
2021/10/24 14:50:00;;;;;;;3.23;1.33;;;;;;;10.23;50.89;98894.81;6159251;28;20250;-71